sensor_id;sensor_type;location;lat;lon;timestamp;P1;durP1;ratioP1;P2;durP2;ratioP2
17171;SDS011;8701;50.150;8.756;2023-01-04T00:03:52;7.23;;;4.70;;
17171;SDS011;8701;50.150;8.756;2023-01-04T00:07:54;6.93;;;4.57;;
17171;SDS011;8701;50.150;8.756;2023-01-04T00:11:57;6.30;;;5.10;;
17171;SDS011;8701;50.150;8.756;2023-01-04T00:16:02;7.73;;;4.80;;
17171;SDS011;8701;50.150;8.756;2023-01-04T00:20:06;9.30;;;5.40;;
17171;SDS011;8701;50.150;8.756;2023-01-04T00:24:09;9.07;;;4.77;;
17171;SDS011;8701;50.150;8.756;2023-01-04T00:28:16;5.90;;;4.50;;
17171;SDS011;8701;50.150;8.756;2023-01-04T00:32:18;10.53;;;5.07;;
17171;SDS011;8701;50.150;8.756;2023-01-04T00:36:21;7.23;;;4.13;;
17171;SDS011;8701;50.150;8.756;2023-01-04T00:40:23;8.47;;;4.90;;
17171;SDS011;8701;50.150;8.756;2023-01-04T00:44:27;13.43;;;5.10;;
17171;SDS011;8701;50.150;8.756;2023-01-04T00:48:29;13.87;;;5.57;;
17171;SDS011;8701;50.150;8.756;2023-01-04T00:52:32;13.03;;;5.20;;
17171;SDS011;8701;50.150;8.756;2023-01-04T00:56:34;14.47;;;5.40;;
17171;SDS011;8701;50.150;8.756;2023-01-04T01:00:37;9.50;;;5.63;;
17171;SDS011;8701;50.150;8.756;2023-01-04T01:04:40;9.80;;;5.70;;
17171;SDS011;8701;50.150;8.756;2023-01-04T01:08:42;8.70;;;5.20;;
17171;SDS011;8701;50.150;8.756;2023-01-04T01:12:45;8.53;;;4.80;;
17171;SDS011;8701;50.150;8.756;2023-01-04T01:16:48;5.00;;;4.50;;
17171;SDS011;8701;50.150;8.756;2023-01-04T01:20:51;7.30;;;4.50;;
17171;SDS011;8701;50.150;8.756;2023-01-04T01:24:53;7.23;;;5.00;;
17171;SDS011;8701;50.150;8.756;2023-01-04T01:28:55;6.87;;;4.30;;
17171;SDS011;8701;50.150;8.756;2023-01-04T01:33:00;10.40;;;5.30;;
17171;SDS011;8701;50.150;8.756;2023-01-04T01:37:02;6.27;;;4.30;;
17171;SDS011;8701;50.150;8.756;2023-01-04T01:41:05;9.23;;;5.03;;
17171;SDS011;8701;50.150;8.756;2023-01-04T01:45:16;10.27;;;4.87;;
17171;SDS011;8701;50.150;8.756;2023-01-04T01:49:29;8.57;;;5.10;;
17171;SDS011;8701;50.150;8.756;2023-01-04T01:53:34;7.17;;;5.20;;
17171;SDS011;8701;50.150;8.756;2023-01-04T01:57:40;10.33;;;5.83;;
17171;SDS011;8701;50.150;8.756;2023-01-04T02:01:43;7.43;;;4.67;;
17171;SDS011;8701;50.150;8.756;2023-01-04T02:05:48;7.97;;;5.13;;
17171;SDS011;8701;50.150;8.756;2023-01-04T02:09:53;10.40;;;5.13;;
17171;SDS011;8701;50.150;8.756;2023-01-04T02:13:56;8.10;;;5.60;;
17171;SDS011;8701;50.150;8.756;2023-01-04T02:18:20;6.73;;;5.57;;
17171;SDS011;8701;50.150;8.756;2023-01-04T02:22:34;6.90;;;5.60;;
17171;SDS011;8701;50.150;8.756;2023-01-04T02:27:10;12.03;;;6.07;;
17171;SDS011;8701;50.150;8.756;2023-01-04T02:31:32;7.93;;;5.60;;
17171;SDS011;8701;50.150;8.756;2023-01-04T02:35:40;8.87;;;6.20;;
17171;SDS011;8701;50.150;8.756;2023-01-04T02:39:52;7.80;;;5.40;;
17171;SDS011;8701;50.150;8.756;2023-01-04T02:44:03;13.43;;;6.23;;
17171;SDS011;8701;50.150;8.756;2023-01-04T02:48:35;11.03;;;6.60;;
17171;SDS011;8701;50.150;8.756;2023-01-04T02:52:55;12.77;;;7.70;;
17171;SDS011;8701;50.150;8.756;2023-01-04T02:57:11;9.93;;;7.23;;
17171;SDS011;8701;50.150;8.756;2023-01-04T03:01:27;14.53;;;7.43;;
17171;SDS011;8701;50.150;8.756;2023-01-04T03:06:06;9.60;;;6.90;;
17171;SDS011;8701;50.150;8.756;2023-01-04T03:10:20;9.20;;;6.60;;
17171;SDS011;8701;50.150;8.756;2023-01-04T03:14:29;11.67;;;7.13;;
17171;SDS011;8701;50.150;8.756;2023-01-04T03:18:39;12.50;;;7.30;;
17171;SDS011;8701;50.150;8.756;2023-01-04T03:22:47;8.60;;;6.93;;
17171;SDS011;8701;50.150;8.756;2023-01-04T03:27:10;8.80;;;7.07;;
17171;SDS011;8701;50.150;8.756;2023-01-04T03:31:31;13.60;;;7.27;;
17171;SDS011;8701;50.150;8.756;2023-01-04T03:35:54;13.03;;;7.13;;
17171;SDS011;8701;50.150;8.756;2023-01-04T03:40:17;11.47;;;8.23;;
17171;SDS011;8701;50.150;8.756;2023-01-04T03:44:42;8.57;;;7.50;;
17171;SDS011;8701;50.150;8.756;2023-01-04T03:49:12;11.40;;;8.50;;
17171;SDS011;8701;50.150;8.756;2023-01-04T03:53:22;13.70;;;8.00;;
17171;SDS011;8701;50.150;8.756;2023-01-04T03:57:28;12.13;;;6.80;;
17171;SDS011;8701;50.150;8.756;2023-01-04T04:01:31;10.20;;;6.60;;
17171;SDS011;8701;50.150;8.756;2023-01-04T04:05:36;9.93;;;6.57;;
17171;SDS011;8701;50.150;8.756;2023-01-04T04:09:57;7.70;;;6.10;;
17171;SDS011;8701;50.150;8.756;2023-01-04T04:14:01;9.20;;;5.70;;
17171;SDS011;8701;50.150;8.756;2023-01-04T04:18:04;9.33;;;6.00;;
17171;SDS011;8701;50.150;8.756;2023-01-04T04:22:06;8.20;;;5.83;;
17171;SDS011;8701;50.150;8.756;2023-01-04T04:26:09;7.40;;;5.73;;
17171;SDS011;8701;50.150;8.756;2023-01-04T04:30:13;7.20;;;5.07;;
17171;SDS011;8701;50.150;8.756;2023-01-04T04:34:15;9.40;;;5.30;;
17171;SDS011;8701;50.150;8.756;2023-01-04T04:38:17;7.47;;;5.00;;
17171;SDS011;8701;50.150;8.756;2023-01-04T04:42:20;5.43;;;4.43;;
17171;SDS011;8701;50.150;8.756;2023-01-04T04:46:24;9.93;;;5.20;;
17171;SDS011;8701;50.150;8.756;2023-01-04T04:50:26;5.20;;;4.40;;
17171;SDS011;8701;50.150;8.756;2023-01-04T04:54:29;6.73;;;4.70;;
17171;SDS011;8701;50.150;8.756;2023-01-04T04:58:31;6.27;;;4.80;;
17171;SDS011;8701;50.150;8.756;2023-01-04T05:02:35;7.90;;;4.10;;
17171;SDS011;8701;50.150;8.756;2023-01-04T05:06:37;8.20;;;4.83;;
17171;SDS011;8701;50.150;8.756;2023-01-04T05:10:40;7.50;;;4.80;;
17171;SDS011;8701;50.150;8.756;2023-01-04T05:14:42;9.20;;;4.77;;
17171;SDS011;8701;50.150;8.756;2023-01-04T05:18:46;6.87;;;4.47;;
17171;SDS011;8701;50.150;8.756;2023-01-04T05:22:48;6.87;;;4.40;;
17171;SDS011;8701;50.150;8.756;2023-01-04T05:26:50;8.80;;;4.33;;
17171;SDS011;8701;50.150;8.756;2023-01-04T05:30:53;5.57;;;4.43;;
17171;SDS011;8701;50.150;8.756;2023-01-04T05:34:58;6.83;;;4.53;;
17171;SDS011;8701;50.150;8.756;2023-01-04T05:39:00;6.43;;;4.73;;
17171;SDS011;8701;50.150;8.756;2023-01-04T05:43:02;6.30;;;4.87;;
17171;SDS011;8701;50.150;8.756;2023-01-04T05:47:04;9.33;;;5.10;;
17171;SDS011;8701;50.150;8.756;2023-01-04T05:51:08;6.63;;;4.80;;
17171;SDS011;8701;50.150;8.756;2023-01-04T05:55:11;6.10;;;4.67;;
17171;SDS011;8701;50.150;8.756;2023-01-04T05:59:13;6.73;;;4.80;;
17171;SDS011;8701;50.150;8.756;2023-01-04T06:03:15;7.33;;;4.10;;
17171;SDS011;8701;50.150;8.756;2023-01-04T06:07:19;7.87;;;4.60;;
17171;SDS011;8701;50.150;8.756;2023-01-04T06:11:21;5.27;;;4.40;;
17171;SDS011;8701;50.150;8.756;2023-01-04T06:15:23;6.83;;;4.40;;
17171;SDS011;8701;50.150;8.756;2023-01-04T06:19:26;7.20;;;4.93;;
17171;SDS011;8701;50.150;8.756;2023-01-04T06:23:30;6.70;;;5.23;;
17171;SDS011;8701;50.150;8.756;2023-01-04T06:27:32;7.27;;;5.50;;
17171;SDS011;8701;50.150;8.756;2023-01-04T06:31:35;7.17;;;5.33;;
17171;SDS011;8701;50.150;8.756;2023-01-04T06:35:37;8.73;;;5.00;;
17171;SDS011;8701;50.150;8.756;2023-01-04T06:39:41;11.87;;;5.93;;
17171;SDS011;8701;50.150;8.756;2023-01-04T06:43:43;9.63;;;6.30;;
17171;SDS011;8701;50.150;8.756;2023-01-04T06:47:45;9.20;;;5.93;;
17171;SDS011;8701;50.150;8.756;2023-01-04T06:51:48;9.50;;;5.83;;
17171;SDS011;8701;50.150;8.756;2023-01-04T06:55:52;10.57;;;6.60;;
17171;SDS011;8701;50.150;8.756;2023-01-04T06:59:54;8.97;;;6.30;;
17171;SDS011;8701;50.150;8.756;2023-01-04T07:03:56;10.77;;;7.40;;
17171;SDS011;8701;50.150;8.756;2023-01-04T07:07:59;11.20;;;7.30;;
17171;SDS011;8701;50.150;8.756;2023-01-04T07:12:03;12.77;;;6.80;;
17171;SDS011;8701;50.150;8.756;2023-01-04T07:16:06;11.60;;;6.50;;
17171;SDS011;8701;50.150;8.756;2023-01-04T07:20:09;10.57;;;6.10;;
17171;SDS011;8701;50.150;8.756;2023-01-04T07:24:12;10.23;;;6.50;;
17171;SDS011;8701;50.150;8.756;2023-01-04T07:28:15;8.40;;;6.30;;
17171;SDS011;8701;50.150;8.756;2023-01-04T07:32:38;10.80;;;7.33;;
17171;SDS011;8701;50.150;8.756;2023-01-04T07:36:40;10.30;;;6.37;;
17171;SDS011;8701;50.150;8.756;2023-01-04T07:40:42;10.63;;;6.67;;
17171;SDS011;8701;50.150;8.756;2023-01-04T07:44:46;10.40;;;6.20;;
17171;SDS011;8701;50.150;8.756;2023-01-04T07:48:48;7.80;;;6.00;;
17171;SDS011;8701;50.150;8.756;2023-01-04T07:52:50;8.20;;;5.47;;
17171;SDS011;8701;50.150;8.756;2023-01-04T07:56:53;8.67;;;5.40;;
17171;SDS011;8701;50.150;8.756;2023-01-04T08:01:03;7.17;;;5.63;;
17171;SDS011;8701;50.150;8.756;2023-01-04T08:05:07;9.00;;;5.27;;
17171;SDS011;8701;50.150;8.756;2023-01-04T08:09:09;6.63;;;5.90;;
17171;SDS011;8701;50.150;8.756;2023-01-04T08:13:12;8.20;;;6.03;;
17171;SDS011;8701;50.150;8.756;2023-01-04T08:17:16;10.07;;;6.37;;
17171;SDS011;8701;50.150;8.756;2023-01-04T08:21:18;7.13;;;5.43;;
17171;SDS011;8701;50.150;8.756;2023-01-04T08:25:20;9.27;;;5.27;;
17171;SDS011;8701;50.150;8.756;2023-01-04T08:29:27;6.83;;;5.40;;
17171;SDS011;8701;50.150;8.756;2023-01-04T08:33:32;8.67;;;5.57;;
17171;SDS011;8701;50.150;8.756;2023-01-04T08:37:35;6.47;;;5.70;;
17171;SDS011;8701;50.150;8.756;2023-01-04T08:41:37;6.90;;;5.80;;
17171;SDS011;8701;50.150;8.756;2023-01-04T08:45:50;8.87;;;5.80;;
17171;SDS011;8701;50.150;8.756;2023-01-04T08:49:56;7.60;;;5.30;;
17171;SDS011;8701;50.150;8.756;2023-01-04T08:53:59;7.70;;;5.40;;
17171;SDS011;8701;50.150;8.756;2023-01-04T08:58:01;11.93;;;5.80;;
17171;SDS011;8701;50.150;8.756;2023-01-04T09:02:07;12.73;;;5.70;;
17171;SDS011;8701;50.150;8.756;2023-01-04T09:06:16;7.07;;;5.10;;
17171;SDS011;8701;50.150;8.756;2023-01-04T09:10:19;7.00;;;4.87;;
17171;SDS011;8701;50.150;8.756;2023-01-04T09:14:21;5.63;;;3.93;;
17171;SDS011;8701;50.150;8.756;2023-01-04T09:18:23;6.20;;;4.20;;
17171;SDS011;8701;50.150;8.756;2023-01-04T09:22:29;4.10;;;3.57;;
17171;SDS011;8701;50.150;8.756;2023-01-04T09:26:31;6.13;;;3.60;;
17171;SDS011;8701;50.150;8.756;2023-01-04T09:30:34;6.50;;;3.70;;
17171;SDS011;8701;50.150;8.756;2023-01-04T09:34:37;4.20;;;3.50;;
17171;SDS011;8701;50.150;8.756;2023-01-04T09:38:41;4.80;;;3.37;;
17171;SDS011;8701;50.150;8.756;2023-01-04T09:42:44;4.37;;;3.50;;
17171;SDS011;8701;50.150;8.756;2023-01-04T09:46:47;3.07;;;2.77;;
17171;SDS011;8701;50.150;8.756;2023-01-04T09:50:55;3.87;;;3.47;;
17171;SDS011;8701;50.150;8.756;2023-01-04T09:55:02;7.03;;;2.90;;
17171;SDS011;8701;50.150;8.756;2023-01-04T09:59:10;4.13;;;3.33;;
17171;SDS011;8701;50.150;8.756;2023-01-04T10:03:17;5.20;;;3.40;;
17171;SDS011;8701;50.150;8.756;2023-01-04T10:07:25;4.50;;;3.33;;
17171;SDS011;8701;50.150;8.756;2023-01-04T10:11:34;3.73;;;2.57;;
17171;SDS011;8701;50.150;8.756;2023-01-04T10:15:47;7.00;;;3.30;;
17171;SDS011;8701;50.150;8.756;2023-01-04T10:20:09;4.20;;;3.20;;
17171;SDS011;8701;50.150;8.756;2023-01-04T10:24:25;3.93;;;2.53;;
17171;SDS011;8701;50.150;8.756;2023-01-04T10:28:48;5.17;;;2.90;;
17171;SDS011;8701;50.150;8.756;2023-01-04T10:33:09;8.70;;;2.90;;
17171;SDS011;8701;50.150;8.756;2023-01-04T10:37:14;4.13;;;2.70;;
17171;SDS011;8701;50.150;8.756;2023-01-04T10:41:20;3.30;;;2.60;;
17171;SDS011;8701;50.150;8.756;2023-01-04T10:45:29;2.73;;;2.53;;
17171;SDS011;8701;50.150;8.756;2023-01-04T10:49:39;6.07;;;3.10;;
17171;SDS011;8701;50.150;8.756;2023-01-04T10:53:45;3.53;;;2.43;;
17171;SDS011;8701;50.150;8.756;2023-01-04T10:57:54;2.27;;;2.17;;
17171;SDS011;8701;50.150;8.756;2023-01-04T11:02:04;2.80;;;2.37;;
17171;SDS011;8701;50.150;8.756;2023-01-04T11:06:14;4.70;;;3.10;;
17171;SDS011;8701;50.150;8.756;2023-01-04T11:10:21;4.93;;;2.60;;
17171;SDS011;8701;50.150;8.756;2023-01-04T11:14:29;7.93;;;2.47;;
17171;SDS011;8701;50.150;8.756;2023-01-04T11:18:38;5.53;;;2.33;;
17171;SDS011;8701;50.150;8.756;2023-01-04T11:22:44;2.73;;;2.50;;
17171;SDS011;8701;50.150;8.756;2023-01-04T11:26:54;6.43;;;1.77;;
17171;SDS011;8701;50.150;8.756;2023-01-04T11:31:00;3.00;;;1.93;;
17171;SDS011;8701;50.150;8.756;2023-01-04T11:35:07;2.20;;;2.00;;
17171;SDS011;8701;50.150;8.756;2023-01-04T11:39:16;4.60;;;2.20;;
17171;SDS011;8701;50.150;8.756;2023-01-04T11:43:22;4.60;;;2.17;;
17171;SDS011;8701;50.150;8.756;2023-01-04T11:47:25;2.30;;;2.10;;
17171;SDS011;8701;50.150;8.756;2023-01-04T11:51:33;2.43;;;2.23;;
17171;SDS011;8701;50.150;8.756;2023-01-04T11:55:39;2.10;;;2.00;;
17171;SDS011;8701;50.150;8.756;2023-01-04T11:59:41;5.43;;;2.47;;
17171;SDS011;8701;50.150;8.756;2023-01-04T12:03:46;2.30;;;1.83;;
17171;SDS011;8701;50.150;8.756;2023-01-04T12:07:51;11.20;;;2.30;;
17171;SDS011;8701;50.150;8.756;2023-01-04T12:11:54;2.37;;;2.00;;
17171;SDS011;8701;50.150;8.756;2023-01-04T12:16:00;2.83;;;2.00;;
17171;SDS011;8701;50.150;8.756;2023-01-04T12:20:10;2.37;;;2.00;;
17171;SDS011;8701;50.150;8.756;2023-01-04T12:24:18;8.87;;;3.10;;
17171;SDS011;8701;50.150;8.756;2023-01-04T12:28:30;3.63;;;2.00;;
17171;SDS011;8701;50.150;8.756;2023-01-04T12:32:43;2.23;;;2.10;;
17171;SDS011;8701;50.150;8.756;2023-01-04T12:36:53;2.13;;;1.87;;
17171;SDS011;8701;50.150;8.756;2023-01-04T12:41:06;2.77;;;2.00;;
17171;SDS011;8701;50.150;8.756;2023-01-04T12:45:17;4.40;;;1.70;;
17171;SDS011;8701;50.150;8.756;2023-01-04T12:54:00;2.77;;;2.03;;
17171;SDS011;8701;50.150;8.756;2023-01-04T12:58:37;6.50;;;1.97;;
17171;SDS011;8701;50.150;8.756;2023-01-04T13:02:44;1.60;;;1.50;;
17171;SDS011;8701;50.150;8.756;2023-01-04T13:06:59;4.23;;;1.90;;
17171;SDS011;8701;50.150;8.756;2023-01-04T13:11:17;2.37;;;1.80;;
17171;SDS011;8701;50.150;8.756;2023-01-04T13:15:53;2.43;;;2.23;;
17171;SDS011;8701;50.150;8.756;2023-01-04T13:20:12;2.30;;;2.00;;
17171;SDS011;8701;50.150;8.756;2023-01-04T13:24:19;2.07;;;1.90;;
17171;SDS011;8701;50.150;8.756;2023-01-04T13:28:24;3.23;;;2.23;;
17171;SDS011;8701;50.150;8.756;2023-01-04T13:32:31;3.73;;;2.00;;
17171;SDS011;8701;50.150;8.756;2023-01-04T13:36:35;2.33;;;2.13;;
17171;SDS011;8701;50.150;8.756;2023-01-04T13:40:42;3.10;;;2.00;;
17171;SDS011;8701;50.150;8.756;2023-01-04T13:44:57;2.80;;;2.27;;
17171;SDS011;8701;50.150;8.756;2023-01-04T13:49:24;2.60;;;2.00;;
17171;SDS011;8701;50.150;8.756;2023-01-04T13:53:28;2.10;;;2.00;;
17171;SDS011;8701;50.150;8.756;2023-01-04T13:57:31;4.80;;;2.00;;
17171;SDS011;8701;50.150;8.756;2023-01-04T14:01:35;1.80;;;1.70;;
17171;SDS011;8701;50.150;8.756;2023-01-04T14:05:46;2.60;;;1.67;;
17171;SDS011;8701;50.150;8.756;2023-01-04T14:09:55;2.17;;;1.70;;
17171;SDS011;8701;50.150;8.756;2023-01-04T14:13:59;4.93;;;1.87;;
17171;SDS011;8701;50.150;8.756;2023-01-04T14:18:01;2.30;;;2.20;;
17171;SDS011;8701;50.150;8.756;2023-01-04T14:22:21;3.20;;;1.90;;
17171;SDS011;8701;50.150;8.756;2023-01-04T14:26:43;1.70;;;1.60;;
17171;SDS011;8701;50.150;8.756;2023-01-04T14:30:46;8.10;;;1.80;;
17171;SDS011;8701;50.150;8.756;2023-01-04T14:34:51;3.97;;;1.80;;
17171;SDS011;8701;50.150;8.756;2023-01-04T14:38:57;2.10;;;1.90;;
17171;SDS011;8701;50.150;8.756;2023-01-04T14:47:33;1.80;;;1.70;;
17171;SDS011;8701;50.150;8.756;2023-01-04T14:51:36;1.70;;;1.60;;
17171;SDS011;8701;50.150;8.756;2023-01-04T14:55:46;1.60;;;1.50;;
17171;SDS011;8701;50.150;8.756;2023-01-04T14:59:51;2.13;;;1.50;;
17171;SDS011;8701;50.150;8.756;2023-01-04T15:03:53;1.53;;;1.43;;
17171;SDS011;8701;50.150;8.756;2023-01-04T15:08:04;1.93;;;1.50;;
17171;SDS011;8701;50.150;8.756;2023-01-04T15:12:12;2.00;;;1.80;;
17171;SDS011;8701;50.150;8.756;2023-01-04T15:16:18;2.50;;;1.50;;
17171;SDS011;8701;50.150;8.756;2023-01-04T15:20:20;1.20;;;1.10;;
17171;SDS011;8701;50.150;8.756;2023-01-04T15:24:26;5.03;;;1.60;;
17171;SDS011;8701;50.150;8.756;2023-01-04T15:28:37;1.40;;;1.30;;
17171;SDS011;8701;50.150;8.756;2023-01-04T15:32:41;2.13;;;1.30;;
17171;SDS011;8701;50.150;8.756;2023-01-04T15:36:46;1.40;;;1.20;;
17171;SDS011;8701;50.150;8.756;2023-01-04T15:40:58;1.40;;;1.30;;
17171;SDS011;8701;50.150;8.756;2023-01-04T15:45:03;2.70;;;1.10;;
17171;SDS011;8701;50.150;8.756;2023-01-04T15:49:07;1.37;;;1.00;;
17171;SDS011;8701;50.150;8.756;2023-01-04T15:53:20;1.10;;;1.00;;
17171;SDS011;8701;50.150;8.756;2023-01-04T15:57:26;1.30;;;1.20;;
17171;SDS011;8701;50.150;8.756;2023-01-04T16:01:37;1.37;;;1.00;;
17171;SDS011;8701;50.150;8.756;2023-01-04T16:05:40;3.13;;;1.30;;
17171;SDS011;8701;50.150;8.756;2023-01-04T16:09:44;1.13;;;1.03;;
17171;SDS011;8701;50.150;8.756;2023-01-04T16:13:48;1.07;;;0.90;;
17171;SDS011;8701;50.150;8.756;2023-01-04T16:17:58;1.93;;;0.97;;
17171;SDS011;8701;50.150;8.756;2023-01-04T16:22:00;2.07;;;0.93;;
17171;SDS011;8701;50.150;8.756;2023-01-04T16:26:03;1.57;;;1.00;;
17171;SDS011;8701;50.150;8.756;2023-01-04T16:30:10;1.67;;;1.57;;
17171;SDS011;8701;50.150;8.756;2023-01-04T16:34:17;1.43;;;0.90;;
17171;SDS011;8701;50.150;8.756;2023-01-04T16:38:22;1.10;;;0.90;;
17171;SDS011;8701;50.150;8.756;2023-01-04T16:42:28;1.00;;;0.90;;
17171;SDS011;8701;50.150;8.756;2023-01-04T16:46:32;1.63;;;1.40;;
17171;SDS011;8701;50.150;8.756;2023-01-04T16:50:41;1.43;;;1.30;;
17171;SDS011;8701;50.150;8.756;2023-01-04T16:59:28;5.20;;;0.93;;
17171;SDS011;8701;50.150;8.756;2023-01-04T17:03:56;1.20;;;1.10;;
17171;SDS011;8701;50.150;8.756;2023-01-04T17:08:04;1.53;;;1.17;;
17171;SDS011;8701;50.150;8.756;2023-01-04T17:12:06;1.20;;;1.10;;
17171;SDS011;8701;50.150;8.756;2023-01-04T17:16:13;0.87;;;0.87;;
17171;SDS011;8701;50.150;8.756;2023-01-04T17:25:38;0.80;;;0.80;;
17171;SDS011;8701;50.150;8.756;2023-01-04T17:29:42;3.03;;;1.03;;
17171;SDS011;8701;50.150;8.756;2023-01-04T17:33:55;1.37;;;1.10;;
17171;SDS011;8701;50.150;8.756;2023-01-04T17:38:20;1.40;;;1.00;;
17171;SDS011;8701;50.150;8.756;2023-01-04T17:42:47;1.07;;;1.00;;
17171;SDS011;8701;50.150;8.756;2023-01-04T17:46:50;1.80;;;1.70;;
17171;SDS011;8701;50.150;8.756;2023-01-04T17:50:58;1.00;;;1.00;;
17171;SDS011;8701;50.150;8.756;2023-01-04T17:55:06;1.30;;;1.20;;
17171;SDS011;8701;50.150;8.756;2023-01-04T17:59:11;1.30;;;1.20;;
17171;SDS011;8701;50.150;8.756;2023-01-04T18:03:16;1.53;;;1.00;;
17171;SDS011;8701;50.150;8.756;2023-01-04T18:07:26;1.03;;;1.03;;
17171;SDS011;8701;50.150;8.756;2023-01-04T18:11:30;1.80;;;0.80;;
17171;SDS011;8701;50.150;8.756;2023-01-04T18:15:35;1.10;;;1.00;;
17171;SDS011;8701;50.150;8.756;2023-01-04T18:19:38;2.50;;;1.13;;
17171;SDS011;8701;50.150;8.756;2023-01-04T18:23:41;0.87;;;0.80;;
17171;SDS011;8701;50.150;8.756;2023-01-04T18:32:56;4.93;;;1.60;;
17171;SDS011;8701;50.150;8.756;2023-01-04T18:37:01;1.30;;;1.20;;
17171;SDS011;8701;50.150;8.756;2023-01-04T18:41:10;1.20;;;1.10;;
17171;SDS011;8701;50.150;8.756;2023-01-04T18:45:14;0.90;;;0.90;;
17171;SDS011;8701;50.150;8.756;2023-01-04T18:49:20;0.90;;;0.90;;
17171;SDS011;8701;50.150;8.756;2023-01-04T18:53:23;1.17;;;0.97;;
17171;SDS011;8701;50.150;8.756;2023-01-04T18:57:26;1.53;;;1.03;;
17171;SDS011;8701;50.150;8.756;2023-01-04T19:01:30;0.80;;;0.80;;
17171;SDS011;8701;50.150;8.756;2023-01-04T19:05:52;1.00;;;1.00;;
17171;SDS011;8701;50.150;8.756;2023-01-04T19:09:55;0.90;;;0.90;;
17171;SDS011;8701;50.150;8.756;2023-01-04T19:13:58;1.60;;;1.50;;
17171;SDS011;8701;50.150;8.756;2023-01-04T19:18:02;1.07;;;0.97;;
17171;SDS011;8701;50.150;8.756;2023-01-04T19:22:06;1.17;;;1.07;;
17171;SDS011;8701;50.150;8.756;2023-01-04T19:26:08;0.90;;;0.83;;
17171;SDS011;8701;50.150;8.756;2023-01-04T19:30:11;2.63;;;0.90;;
17171;SDS011;8701;50.150;8.756;2023-01-04T19:34:15;1.30;;;1.20;;
17171;SDS011;8701;50.150;8.756;2023-01-04T19:38:18;1.53;;;1.07;;
17171;SDS011;8701;50.150;8.756;2023-01-04T19:42:21;2.30;;;0.90;;
17171;SDS011;8701;50.150;8.756;2023-01-04T19:46:23;1.07;;;0.97;;
17171;SDS011;8701;50.150;8.756;2023-01-04T19:50:26;0.80;;;0.80;;
17171;SDS011;8701;50.150;8.756;2023-01-04T19:54:29;1.10;;;0.80;;
17171;SDS011;8701;50.150;8.756;2023-01-04T19:58:36;2.20;;;1.00;;
17171;SDS011;8701;50.150;8.756;2023-01-04T20:02:40;0.93;;;0.80;;
17171;SDS011;8701;50.150;8.756;2023-01-04T20:06:43;1.07;;;1.03;;
17171;SDS011;8701;50.150;8.756;2023-01-04T20:10:55;1.00;;;1.00;;
17171;SDS011;8701;50.150;8.756;2023-01-04T20:14:58;1.00;;;1.00;;
17171;SDS011;8701;50.150;8.756;2023-01-04T20:19:04;1.27;;;0.90;;
17171;SDS011;8701;50.150;8.756;2023-01-04T20:23:07;1.10;;;1.10;;
17171;SDS011;8701;50.150;8.756;2023-01-04T20:27:11;1.73;;;1.03;;
17171;SDS011;8701;50.150;8.756;2023-01-04T20:31:15;1.07;;;1.00;;
17171;SDS011;8701;50.150;8.756;2023-01-04T20:35:19;2.60;;;1.20;;
17171;SDS011;8701;50.150;8.756;2023-01-04T20:39:25;1.57;;;1.17;;
17171;SDS011;8701;50.150;8.756;2023-01-04T20:43:29;1.07;;;1.07;;
17171;SDS011;8701;50.150;8.756;2023-01-04T20:47:42;1.50;;;1.40;;
17171;SDS011;8701;50.150;8.756;2023-01-04T20:51:45;1.80;;;1.70;;
17171;SDS011;8701;50.150;8.756;2023-01-04T20:55:47;1.73;;;1.63;;
17171;SDS011;8701;50.150;8.756;2023-01-04T20:59:51;1.47;;;1.07;;
17171;SDS011;8701;50.150;8.756;2023-01-04T21:03:55;1.33;;;1.33;;
17171;SDS011;8701;50.150;8.756;2023-01-04T21:07:58;1.63;;;1.53;;
17171;SDS011;8701;50.150;8.756;2023-01-04T21:12:02;1.70;;;1.47;;
17171;SDS011;8701;50.150;8.756;2023-01-04T21:16:07;1.50;;;1.40;;
17171;SDS011;8701;50.150;8.756;2023-01-04T21:20:11;2.70;;;1.40;;
17171;SDS011;8701;50.150;8.756;2023-01-04T21:24:15;1.33;;;1.23;;
17171;SDS011;8701;50.150;8.756;2023-01-04T21:28:20;1.60;;;1.50;;
17171;SDS011;8701;50.150;8.756;2023-01-04T21:32:27;4.00;;;1.10;;
17171;SDS011;8701;50.150;8.756;2023-01-04T21:40:56;0.90;;;0.90;;
17171;SDS011;8701;50.150;8.756;2023-01-04T21:46:19;1.00;;;0.90;;
17171;SDS011;8701;50.150;8.756;2023-01-04T21:50:32;0.90;;;0.80;;
17171;SDS011;8701;50.150;8.756;2023-01-04T21:54:34;1.00;;;1.00;;
17171;SDS011;8701;50.150;8.756;2023-01-04T21:58:39;0.90;;;0.80;;
17171;SDS011;8701;50.150;8.756;2023-01-04T22:02:44;1.53;;;1.10;;
17171;SDS011;8701;50.150;8.756;2023-01-04T22:06:48;2.50;;;0.90;;
17171;SDS011;8701;50.150;8.756;2023-01-04T22:10:51;1.00;;;0.80;;
17171;SDS011;8701;50.150;8.756;2023-01-04T22:14:56;0.70;;;0.70;;
17171;SDS011;8701;50.150;8.756;2023-01-04T22:18:59;0.80;;;0.80;;
17171;SDS011;8701;50.150;8.756;2023-01-04T22:23:03;1.27;;;0.83;;
17171;SDS011;8701;50.150;8.756;2023-01-04T22:27:06;0.90;;;0.90;;
17171;SDS011;8701;50.150;8.756;2023-01-04T22:31:09;1.00;;;1.00;;
17171;SDS011;8701;50.150;8.756;2023-01-04T22:35:13;1.27;;;1.17;;
17171;SDS011;8701;50.150;8.756;2023-01-04T22:39:17;2.20;;;1.47;;
17171;SDS011;8701;50.150;8.756;2023-01-04T22:43:21;0.90;;;0.90;;
17171;SDS011;8701;50.150;8.756;2023-01-04T22:47:24;1.77;;;1.00;;
17171;SDS011;8701;50.150;8.756;2023-01-04T22:51:27;1.27;;;1.17;;
17171;SDS011;8701;50.150;8.756;2023-01-04T23:00:05;2.10;;;1.10;;
17171;SDS011;8701;50.150;8.756;2023-01-04T23:04:09;2.47;;;1.50;;
17171;SDS011;8701;50.150;8.756;2023-01-04T23:08:17;3.30;;;1.40;;
17171;SDS011;8701;50.150;8.756;2023-01-04T23:12:21;2.20;;;1.70;;
17171;SDS011;8701;50.150;8.756;2023-01-04T23:16:24;2.73;;;1.57;;
17171;SDS011;8701;50.150;8.756;2023-01-04T23:20:26;5.97;;;1.97;;
17171;SDS011;8701;50.150;8.756;2023-01-04T23:24:29;1.73;;;1.60;;
17171;SDS011;8701;50.150;8.756;2023-01-04T23:28:36;2.10;;;1.67;;
17171;SDS011;8701;50.150;8.756;2023-01-04T23:32:38;4.47;;;1.70;;
17171;SDS011;8701;50.150;8.756;2023-01-04T23:36:42;1.50;;;1.40;;
17171;SDS011;8701;50.150;8.756;2023-01-04T23:40:45;4.63;;;1.57;;
17171;SDS011;8701;50.150;8.756;2023-01-04T23:44:51;2.30;;;1.80;;
17171;SDS011;8701;50.150;8.756;2023-01-04T23:48:53;4.60;;;1.50;;
17171;SDS011;8701;50.150;8.756;2023-01-04T23:52:56;1.60;;;1.50;;
17171;SDS011;8701;50.150;8.756;2023-01-04T23:56:59;1.87;;;1.77;;
